Skip Navigation Links
NOAA logo - Click to go to the NOAA homepage
NOAA's National Weather Service
Alaska Aviation Weather Unit
  NWS logo - Click to go to the NWS homepage
Left Navbar Graphic     03 AKDT = 11 GMT

   
NOAA is celebrating 200 years of science, service, and stewardship. Visit the NOAA 200th celebration Web site to learn more.
USA.gov is the U.S. Government's official Web portal to all Federal, state and local government Web resources and services.
Facebook
NWS on Facebook

AAWU Home :: Display TAF Add Bookmark
TAF CYOC 281738Z 2818/2901 09007KT P6SM FEW040 BKN200 TEMPO 2818/2821
     BKN040 OVC080
     BECMG 2818/2820 05010KT
    FM282100 05010KT 2SM -SHSN BKN020 OVC040 TEMPO 2821/2901 P6SM NSW
     SCT020 OVC050
    RMK NXT FCST WILL BE ISSUED AT 291445Z=

 Alaska TAF Map

NOAA's National Weather Service
Alaska Aviation Weather Unit
6930 Sand Lake Road
Anchorage, AK 99502-1845
Disclaimer
Credits
Glossary
Privacy Policy
About Us
Career Opportunities
Contact AAWU Internet Services Site last modified: April, 17th 2012